Time;durP1;ratioP1;P1;durP2;ratioP2;P2;SDS_P1;SDS_P2;PMS_P1;PMS_P2;Temp;Humidity;BMP_temperature;BMP_pressure;BME280_temperature;BME280_humidity;BME280_pressure;Samples;Min_cycle;Max_cycle;Signal;HPM_P1;HPM_P2
2021/10/20 00:01:16;;;;;;;27.92;16.23;;;;;;;;;;6254065;23;20119;-72
2021/10/20 00:04:20;;;;;;;24.80;15.45;;;;;;;;;;6254228;23;20015;-74
2021/10/20 00:07:24;;;;;;;30.88;16.65;;;;;;;;;;6235548;23;20035;-73
2021/10/20 00:10:29;;;;;;;36.03;19.15;;;;;;;;;;6253879;23;20499;-73
2021/10/20 00:13:33;;;;;;;31.83;18.35;;;;;;;;;;6254008;23;20023;-73
2021/10/20 00:16:38;;;;;;;24.73;16.13;;;;;;;;;;6235273;23;20027;-72
2021/10/20 00:19:42;;;;;;;27.92;17.30;;;;;;;;;;6254094;23;20337;-73
2021/10/20 00:22:46;;;;;;;27.13;16.77;;;;;;;;;;6235396;23;20019;-73
2021/10/20 00:25:51;;;;;;;23.17;15.60;;;;;;;;;;6253463;23;20015;-72
2021/10/20 00:28:55;;;;;;;25.98;16.98;;;;;;;;;;6253709;23;20023;-72
2021/10/20 00:31:59;;;;;;;25.90;16.75;;;;;;;;;;6235113;23;20030;-73
2021/10/20 00:35:04;;;;;;;27.58;16.88;;;;;;;;;;6253818;23;20027;-73
2021/10/20 00:38:09;;;;;;;32.17;19.13;;;;;;;;;;6218014;23;20023;-73
2021/10/20 00:41:13;;;;;;;36.17;20.15;;;;;;;;;;6253756;23;20023;-73
2021/10/20 00:44:18;;;;;;;27.70;17.95;;;;;;;;;;6253834;23;20019;-73
2021/10/20 00:47:23;;;;;;;29.63;18.27;;;;;;;;;;6253788;23;20333;-72
2021/10/20 00:50:27;;;;;;;26.30;16.60;;;;;;;;;;6253527;23;20027;-73
2021/10/20 00:53:31;;;;;;;33.95;18.25;;;;;;;;;;6217813;23;20039;-72
2021/10/20 00:56:36;;;;;;;26.92;17.60;;;;;;;;;;6253687;23;20071;-72
2021/10/20 00:59:41;;;;;;;29.75;17.75;;;;;;;;;;6253655;23;20019;-73
2021/10/20 01:02:46;;;;;;;29.85;18.35;;;;;;;;;;6253626;23;20115;-73
2021/10/20 01:05:50;;;;;;;25.98;16.73;;;;;;;;;;6253605;23;20019;-72
2021/10/20 01:08:55;;;;;;;28.15;17.35;;;;;;;;;;6253792;23;20067;-73
2021/10/20 01:11:59;;;;;;;26.58;17.52;;;;;;;;;;6234847;23;20455;-73
2021/10/20 01:15:11;;;;;;;27.15;16.85;;;;;;;;;;6217636;23;20019;-73
2021/10/20 01:18:15;;;;;;;24.90;16.25;;;;;;;;;;6234904;23;20027;-73
2021/10/20 01:21:21;;;;;;;21.10;15.68;;;;;;;;;;6253328;23;20111;-72
2021/10/20 01:24:25;;;;;;;22.52;15.43;;;;;;;;;;6253440;23;20336;-72
2021/10/20 01:27:29;;;;;;;23.02;15.23;;;;;;;;;;6245910;23;20023;-73
2021/10/20 01:30:33;;;;;;;21.50;15.13;;;;;;;;;;6253256;23;20023;-72
2021/10/20 01:33:38;;;;;;;22.50;14.90;;;;;;;;;;6234603;23;20459;-73
2021/10/20 01:36:43;;;;;;;21.13;14.43;;;;;;;;;;6253106;23;20027;-72
2021/10/20 01:39:47;;;;;;;24.25;15.25;;;;;;;;;;6234691;23;20016;-73
2021/10/20 01:42:52;;;;;;;26.33;15.10;;;;;;;;;;6254040;23;20023;-73
2021/10/20 01:45:56;;;;;;;25.55;16.25;;;;;;;;;;6250061;23;20336;-72
2021/10/20 01:49:01;;;;;;;26.73;17.35;;;;;;;;;;6255266;23;20038;-73
2021/10/20 01:52:06;;;;;;;27.55;16.85;;;;;;;;;;6255141;23;20015;-72
2021/10/20 01:55:14;;;;;;;25.77;15.48;;;;;;;;;;6255345;23;20039;-71
2021/10/20 01:58:19;;;;;;;23.23;14.93;;;;;;;;;;6255367;23;20027;-72
2021/10/20 02:01:23;;;;;;;23.13;15.85;;;;;;;;;;6236953;23;20011;-72
2021/10/20 02:04:27;;;;;;;21.83;15.13;;;;;;;;;;6255298;23;20027;-71
2021/10/20 02:07:31;;;;;;;22.30;16.08;;;;;;;;;;6255328;23;20455;-71
2021/10/20 02:10:35;;;;;;;23.98;15.38;;;;;;;;;;6255126;23;20336;-72
2021/10/20 02:13:40;;;;;;;23.02;15.38;;;;;;;;;;6255139;23;20015;-71
2021/10/20 02:16:44;;;;;;;23.40;14.63;;;;;;;;;;6255133;23;20032;-72
2021/10/20 02:19:50;;;;;;;22.90;15.38;;;;;;;;;;6255129;23;20479;-72
2021/10/20 02:22:54;;;;;;;23.23;14.57;;;;;;;;;;6236638;23;20034;-72
2021/10/20 02:25:59;;;;;;;21.15;13.45;;;;;;;;;;6254109;23;20456;-71
2021/10/20 02:29:03;;;;;;;22.00;13.23;;;;;;;;;;6255176;23;20336;-72
2021/10/20 02:32:08;;;;;;;18.90;12.45;;;;;;;;;;6254953;23;20035;-72
2021/10/20 02:35:12;;;;;;;17.80;12.07;;;;;;;;;;6255168;23;20015;-71
2021/10/20 02:38:17;;;;;;;20.40;13.02;;;;;;;;;;6255085;23;20027;-72
2021/10/20 02:41:21;;;;;;;22.52;13.95;;;;;;;;;;6236236;23;20019;-71
2021/10/20 02:44:25;;;;;;;25.45;13.77;;;;;;;;;;6254933;23;20023;-72
2021/10/20 02:47:30;;;;;;;23.42;14.65;;;;;;;;;;6254982;23;20011;-72
2021/10/20 02:50:34;;;;;;;25.92;15.43;;;;;;;;;;6236115;23;20078;-71
2021/10/20 02:53:38;;;;;;;21.60;15.10;;;;;;;;;;6254198;23;20016;-72
2021/10/20 02:56:42;;;;;;;27.70;15.60;;;;;;;;;;6254561;23;20075;-71
2021/10/20 02:59:48;;;;;;;24.05;15.70;;;;;;;;;;6254535;23;20019;-72
2021/10/20 03:02:52;;;;;;;23.45;16.55;;;;;;;;;;6254302;23;20023;-72
2021/10/20 03:05:57;;;;;;;24.70;16.60;;;;;;;;;;6236121;23;20039;-71
2021/10/20 03:09:01;;;;;;;23.35;16.77;;;;;;;;;;6254557;23;20019;-72
2021/10/20 03:12:05;;;;;;;25.45;16.58;;;;;;;;;;6254241;23;20019;-71
2021/10/20 03:15:10;;;;;;;28.60;16.95;;;;;;;;;;6254394;23;20019;-71
2021/10/20 03:18:14;;;;;;;26.42;16.08;;;;;;;;;;6254574;23;20035;-71
2021/10/20 03:21:19;;;;;;;24.15;15.77;;;;;;;;;;6254263;23;20019;-72
2021/10/20 03:24:24;;;;;;;27.73;16.55;;;;;;;;;;6254411;23;20027;-72
2021/10/20 03:27:28;;;;;;;23.48;16.13;;;;;;;;;;6247212;23;20329;-71
2021/10/20 03:30:32;;;;;;;23.65;16.38;;;;;;;;;;6235656;23;20487;-72
2021/10/20 03:33:36;;;;;;;30.23;17.20;;;;;;;;;;6235792;23;20035;-72
2021/10/20 03:36:41;;;;;;;29.38;17.35;;;;;;;;;;6254245;23;20023;-71
2021/10/20 03:39:45;;;;;;;29.33;18.25;;;;;;;;;;6235534;23;20340;-72
2021/10/20 03:42:49;;;;;;;27.10;18.30;;;;;;;;;;6254265;23;20019;-71
2021/10/20 03:45:54;;;;;;;40.58;17.45;;;;;;;;;;6229829;23;20014;-72
2021/10/20 03:48:58;;;;;;;22.50;15.75;;;;;;;;;;6254117;23;20027;-72
2021/10/20 03:52:02;;;;;;;27.17;16.20;;;;;;;;;;6254073;23;20011;-72
2021/10/20 03:55:07;;;;;;;23.30;15.85;;;;;;;;;;6235470;23;20019;-71
2021/10/20 03:58:11;;;;;;;24.95;15.73;;;;;;;;;;6253950;23;20042;-72
2021/10/20 04:01:16;;;;;;;23.95;16.35;;;;;;;;;;6253918;23;20011;-71
2021/10/20 04:04:20;;;;;;;24.42;15.50;;;;;;;;;;6254064;23;20026;-71
2021/10/20 04:07:24;;;;;;;23.85;15.38;;;;;;;;;;6254012;23;20459;-71
2021/10/20 04:10:29;;;;;;;24.20;16.15;;;;;;;;;;6235089;23;20344;-72
2021/10/20 04:13:33;;;;;;;25.67;15.90;;;;;;;;;;6253972;23;20019;-71
2021/10/20 04:16:37;;;;;;;22.33;14.90;;;;;;;;;;6253751;23;20475;-71
2021/10/20 04:19:42;;;;;;;23.83;15.75;;;;;;;;;;6253686;23;20015;-72
2021/10/20 04:22:48;;;;;;;26.50;15.63;;;;;;;;;;6253842;23;20062;-71
2021/10/20 04:25:53;;;;;;;23.63;14.52;;;;;;;;;;6253069;23;20015;-71
2021/10/20 04:28:57;;;;;;;22.00;14.73;;;;;;;;;;6253879;23;20038;-72
2021/10/20 04:32:01;;;;;;;24.05;15.45;;;;;;;;;;6253785;23;20333;-72
2021/10/20 04:35:06;;;;;;;31.48;15.45;;;;;;;;;;6253782;23;20015;-72
2021/10/20 04:38:10;;;;;;;22.65;15.63;;;;;;;;;;6253724;23;20031;-71
2021/10/20 04:41:15;;;;;;;24.05;15.57;;;;;;;;;;6235184;23;20490;-72
2021/10/20 04:44:19;;;;;;;26.20;15.45;;;;;;;;;;6253882;23;20410;-72
2021/10/20 04:47:23;;;;;;;21.05;14.80;;;;;;;;;;6253760;23;20327;-71
2021/10/20 04:50:28;;;;;;;29.88;15.18;;;;;;;;;;6253548;23;20019;-72
2021/10/20 04:53:32;;;;;;;25.80;13.52;;;;;;;;;;6235201;23;20019;-72
2021/10/20 04:56:37;;;;;;;26.10;14.07;;;;;;;;;;6234834;23;20035;-71
2021/10/20 04:59:41;;;;;;;19.33;13.73;;;;;;;;;;6253428;23;20039;-72
2021/10/20 05:02:46;;;;;;;21.38;14.73;;;;;;;;;;6253370;23;20019;-71
2021/10/20 05:05:50;;;;;;;23.20;14.13;;;;;;;;;;6253666;23;20023;-71
2021/10/20 05:08:54;;;;;;;22.15;13.75;;;;;;;;;;6253531;23;20545;-70
2021/10/20 05:11:58;;;;;;;27.98;15.15;;;;;;;;;;6252817;23;20070;-71
2021/10/20 05:15:03;;;;;;;28.20;14.75;;;;;;;;;;6253261;23;20011;-71
2021/10/20 05:18:09;;;;;;;28.58;14.90;;;;;;;;;;6253587;23;20023;-71
2021/10/20 05:21:14;;;;;;;30.63;15.73;;;;;;;;;;6253326;23;20047;-71
2021/10/20 05:24:18;;;;;;;21.88;13.80;;;;;;;;;;6253515;23;20019;-71
2021/10/20 05:27:22;;;;;;;32.60;16.25;;;;;;;;;;6246656;23;20570;-71
2021/10/20 05:30:27;;;;;;;24.27;14.55;;;;;;;;;;6253418;23;20022;-71
2021/10/20 05:33:31;;;;;;;26.20;15.05;;;;;;;;;;6253668;23;20011;-71
2021/10/20 05:36:35;;;;;;;33.63;15.60;;;;;;;;;;6253460;23;20031;-71
2021/10/20 05:39:39;;;;;;;25.38;13.68;;;;;;;;;;6253415;23;20016;-71
2021/10/20 05:42:44;;;;;;;29.55;15.48;;;;;;;;;;6234890;23;20019;-72
2021/10/20 05:45:48;;;;;;;25.75;13.68;;;;;;;;;;6246819;23;20574;-72
2021/10/20 05:48:52;;;;;;;28.00;14.18;;;;;;;;;;6253394;23;20169;-71
2021/10/20 05:51:57;;;;;;;29.05;13.57;;;;;;;;;;6253197;23;20634;-71
2021/10/20 05:55:01;;;;;;;23.42;13.32;;;;;;;;;;6253401;23;20348;-71
2021/10/20 05:58:05;;;;;;;25.90;13.95;;;;;;;;;;6253285;23;20023;-72
2021/10/20 06:01:12;;;;;;;24.00;13.07;;;;;;;;;;6253200;23;20369;-72
2021/10/20 06:04:17;;;;;;;27.30;11.88;;;;;;;;;;6253291;23;20039;-72
2021/10/20 06:07:21;;;;;;;24.60;11.57;;;;;;;;;;6253336;23;20570;-72
2021/10/20 06:10:25;;;;;;;19.50;10.98;;;;;;;;;;6253050;23;20023;-71
2021/10/20 06:13:29;;;;;;;27.05;11.95;;;;;;;;;;6253289;23;20011;-72
2021/10/20 06:16:36;;;;;;;21.58;10.77;;;;;;;;;;6253191;23;20031;-72
2021/10/20 06:19:40;;;;;;;31.15;11.90;;;;;;;;;;6253027;23;20019;-71
2021/10/20 06:22:45;;;;;;;27.42;10.95;;;;;;;;;;6253100;23;20035;-71
2021/10/20 06:25:49;;;;;;;21.70;11.25;;;;;;;;;;6252608;23;20456;-71
2021/10/20 06:28:55;;;;;;;22.67;10.68;;;;;;;;;;6253815;23;20047;-71
2021/10/20 06:31:59;;;;;;;32.95;12.25;;;;;;;;;;6254636;23;20035;-71
2021/10/20 06:35:04;;;;;;;22.63;10.82;;;;;;;;;;6254861;23;20019;-71
2021/10/20 06:38:08;;;;;;;24.52;11.05;;;;;;;;;;6254824;23;20027;-71
2021/10/20 06:41:13;;;;;;;19.27;10.65;;;;;;;;;;6254475;23;20016;-71
2021/10/20 06:44:18;;;;;;;24.63;11.88;;;;;;;;;;6254651;23;20038;-71
2021/10/20 06:47:22;;;;;;;22.85;10.88;;;;;;;;;;6254853;23;20011;-71
2021/10/20 06:50:26;;;;;;;14.65;9.55;;;;;;;;;;6254532;23;20019;-71
2021/10/20 06:53:30;;;;;;;14.82;9.02;;;;;;;;;;6254724;23;20015;-72
2021/10/20 06:56:35;;;;;;;12.52;8.02;;;;;;;;;;6254677;23;20552;-72
2021/10/20 06:59:41;;;;;;;14.85;8.52;;;;;;;;;;6254649;23;20011;-71
2021/10/20 07:02:45;;;;;;;13.15;8.20;;;;;;;;;;6254875;23;20023;-72
2021/10/20 07:05:49;;;;;;;15.75;8.77;;;;;;;;;;6254661;23;20019;-72
2021/10/20 07:08:55;;;;;;;14.73;8.75;;;;;;;;;;6254725;23;20019;-72
2021/10/20 07:12:00;;;;;;;13.88;8.45;;;;;;;;;;6254589;23;20024;-72
2021/10/20 07:15:04;;;;;;;14.60;8.27;;;;;;;;;;6254593;23;20016;-72
2021/10/20 07:18:08;;;;;;;20.20;8.40;;;;;;;;;;6245399;23;20032;-72
2021/10/20 07:21:12;;;;;;;14.75;8.23;;;;;;;;;;6254490;23;20471;-72
2021/10/20 07:24:17;;;;;;;15.30;7.95;;;;;;;;;;6235923;23;20023;-71
2021/10/20 07:27:22;;;;;;;19.10;8.38;;;;;;;;;;6229241;23;20353;-72
2021/10/20 07:30:27;;;;;;;14.95;9.30;;;;;;;;;;6254254;23;20019;-72
2021/10/20 07:33:31;;;;;;;13.68;8.52;;;;;;;;;;6254490;23;20336;-72
2021/10/20 07:36:37;;;;;;;12.23;7.68;;;;;;;;;;6254467;23;20539;-71
2021/10/20 07:39:41;;;;;;;15.63;7.97;;;;;;;;;;6253995;23;20451;-72
2021/10/20 07:42:46;;;;;;;15.70;9.80;;;;;;;;;;6254294;23;20015;-72
2021/10/20 07:45:50;;;;;;;15.10;9.18;;;;;;;;;;6247315;23;20068;-72
2021/10/20 07:48:54;;;;;;;18.42;9.90;;;;;;;;;;6254436;23;20032;-72
2021/10/20 07:51:59;;;;;;;18.63;9.10;;;;;;;;;;6254244;23;20350;-72
2021/10/20 07:55:04;;;;;;;17.27;9.02;;;;;;;;;;6254065;23;20011;-72
2021/10/20 07:58:08;;;;;;;16.40;8.27;;;;;;;;;;6253895;23;20344;-71
2021/10/20 08:01:13;;;;;;;17.35;9.80;;;;;;;;;;6253844;23;20337;-71
2021/10/20 08:04:17;;;;;;;16.13;9.55;;;;;;;;;;6253753;23;20023;-71
2021/10/20 08:07:22;;;;;;;16.00;9.77;;;;;;;;;;6254017;23;20019;-72
2021/10/20 08:10:27;;;;;;;20.27;10.38;;;;;;;;;;6253878;23;20019;-72
2021/10/20 08:13:31;;;;;;;18.45;10.38;;;;;;;;;;6253829;23;20031;-71
2021/10/20 08:16:35;;;;;;;18.02;10.23;;;;;;;;;;6235281;23;20031;-72
2021/10/20 08:19:40;;;;;;;13.55;8.85;;;;;;;;;;6253782;23;20019;-72
2021/10/20 08:22:44;;;;;;;15.32;8.95;;;;;;;;;;6235167;23;20013;-72
2021/10/20 08:25:49;;;;;;;11.57;8.05;;;;;;;;;;6253681;23;20012;-71
2021/10/20 08:28:53;;;;;;;14.27;7.43;;;;;;;;;;6253913;23;20015;-71
2021/10/20 08:31:57;;;;;;;9.85;7.10;;;;;;;;;;6253871;23;20600;-71
2021/10/20 08:35:02;;;;;;;9.35;6.70;;;;;;;;;;6253865;23;20008;-71
2021/10/20 08:38:06;;;;;;;12.95;7.35;;;;;;;;;;6253824;23;20020;-72
2021/10/20 08:41:11;;;;;;;11.30;6.25;;;;;;;;;;6253755;23;20016;-71
2021/10/20 08:44:16;;;;;;;8.50;5.68;;;;;;;;;;6253218;23;20015;-72
2021/10/20 08:47:20;;;;;;;14.73;5.25;;;;;;;;;;6253769;23;20016;-71
2021/10/20 08:50:32;;;;;;;18.83;7.30;;;;;;;;;;6253726;23;20091;-72
2021/10/20 08:53:36;;;;;;;13.30;6.60;;;;;;;;;;6253503;23;20340;-72
2021/10/20 08:56:44;;;;;;;13.05;7.07;;;;;;;;;;6253490;23;20031;-71
2021/10/20 08:59:48;;;;;;;11.18;6.28;;;;;;;;;;6253477;23;20019;-71
2021/10/20 09:02:53;;;;;;;9.80;5.75;;;;;;;;;;6253444;23;20015;-72
2021/10/20 09:05:58;;;;;;;8.18;5.88;;;;;;;;;;6253394;23;20015;-72
2021/10/20 09:09:03;;;;;;;11.70;7.20;;;;;;;;;;6253321;23;20008;-72
2021/10/20 09:12:07;;;;;;;9.93;6.85;;;;;;;;;;6253464;23;20030;-72
2021/10/20 09:15:15;;;;;;;14.13;6.60;;;;;;;;;;6253484;23;20059;-72
2021/10/20 09:18:19;;;;;;;7.93;5.65;;;;;;;;;;6253299;23;20027;-72
2021/10/20 09:21:24;;;;;;;9.85;5.55;;;;;;;;;;6253276;23;20015;-72
2021/10/20 09:24:41;;;;;;;14.88;5.75;;;;;;;;;;6253413;23;20012;-72
2021/10/20 09:27:46;;;;;;;14.82;6.75;;;;;;;;;;6244684;23;20028;-72
2021/10/20 09:30:51;;;;;;;16.17;6.60;;;;;;;;;;6253326;23;20011;-72
2021/10/20 09:34:05;;;;;;;6.57;4.22;;;;;;;;;;6253178;23;20349;-70
2021/10/20 09:37:10;;;;;;;9.27;4.70;;;;;;;;;;6253291;23;20456;-70
2021/10/20 09:40:15;;;;;;;6.70;3.95;;;;;;;;;;6253247;23;20016;-72
2021/10/20 09:43:20;;;;;;;6.93;3.83;;;;;;;;;;6253470;23;20016;-72
2021/10/20 09:46:32;;;;;;;4.28;2.70;;;;;;;;;;6242968;23;20012;-72
2021/10/20 09:49:45;;;;;;;4.80;2.90;;;;;;;;;;6253254;23;20012;-71
2021/10/20 09:52:51;;;;;;;5.97;3.30;;;;;;;;;;6253191;23;20012;-72
2021/10/20 09:55:55;;;;;;;5.93;3.33;;;;;;;;;;6253178;23;20020;-71
2021/10/20 09:58:59;;;;;;;5.00;2.45;;;;;;;;;;6253138;23;20024;-71
2021/10/20 10:02:04;;;;;;;3.05;2.65;;;;;;;;;;6253262;23;20012;-71
2021/10/20 10:05:09;;;;;;;3.33;3.00;;;;;;;;;;6255021;23;20012;-71
2021/10/20 10:08:13;;;;;;;6.45;3.90;;;;;;;;;;6255332;23;20444;-71
2021/10/20 10:11:18;;;;;;;6.07;3.63;;;;;;;;;;6254873;23;20012;-71
2021/10/20 10:14:25;;;;;;;10.40;4.68;;;;;;;;;;6255206;23;20129;-71
2021/10/20 10:17:30;;;;;;;6.40;4.88;;;;;;;;;;6255235;23;20027;-72
2021/10/20 10:20:38;;;;;;;7.45;4.55;;;;;;;;;;6254897;23;20016;-72
2021/10/20 10:23:54;;;;;;;9.38;5.88;;;;;;;;;;6255023;23;20008;-72
2021/10/20 10:27:06;;;;;;;11.80;6.15;;;;;;;;;;6249753;23;20020;-72
2021/10/20 10:30:17;;;;;;;9.18;6.10;;;;;;;;;;6255050;23;20019;-72
2021/10/20 10:33:27;;;;;;;11.77;5.07;;;;;;;;;;6254938;23;20016;-72
2021/10/20 10:36:31;;;;;;;10.60;5.38;;;;;;;;;;6254735;23;20019;-70
2021/10/20 10:39:35;;;;;;;10.80;6.85;;;;;;;;;;6254833;23;20027;-70
2021/10/20 10:42:44;;;;;;;10.95;6.05;;;;;;;;;;6254950;23;20039;-71
2021/10/20 10:45:51;;;;;;;13.45;6.95;;;;;;;;;;6247183;23;20463;-71
2021/10/20 10:48:56;;;;;;;14.35;8.38;;;;;;;;;;6254976;23;20027;-71
2021/10/20 10:52:19;;;;;;;8.63;6.93;;;;;;;;;;6254841;23;20019;-71
2021/10/20 10:55:24;;;;;;;9.48;7.22;;;;;;;;;;6254627;23;20329;-70
2021/10/20 10:58:28;;;;;;;11.45;7.10;;;;;;;;;;6254641;23;20590;-71
2021/10/20 11:01:45;;;;;;;13.50;6.18;;;;;;;;;;6254607;23;20020;-71
2021/10/20 11:04:57;;;;;;;8.82;6.95;;;;;;;;;;6254734;23;20027;-70
2021/10/20 11:08:10;;;;;;;11.70;7.45;;;;;;;;;;6254659;23;20008;-71
2021/10/20 11:11:14;;;;;;;10.50;7.55;;;;;;;;;;6254603;23;20019;-71
2021/10/20 11:14:21;;;;;;;13.05;6.40;;;;;;;;;;6254321;23;20163;-71
2021/10/20 11:17:26;;;;;;;8.55;6.00;;;;;;;;;;6254516;23;20016;-72
2021/10/20 11:20:32;;;;;;;15.68;6.97;;;;;;;;;;6254347;23;20036;-71
2021/10/20 11:23:36;;;;;;;12.90;8.82;;;;;;;;;;6254621;23;20035;-71
2021/10/20 11:26:41;;;;;;;12.63;7.05;;;;;;;;;;6250421;23;20027;-72
2021/10/20 11:29:47;;;;;;;8.07;6.15;;;;;;;;;;6254422;23;20023;-72
2021/10/20 11:32:51;;;;;;;9.40;5.90;;;;;;;;;;6254549;23;20012;-72
2021/10/20 11:35:56;;;;;;;9.02;5.68;;;;;;;;;;6254398;23;20012;-72
2021/10/20 11:39:04;;;;;;;8.80;5.40;;;;;;;;;;6254167;23;20024;-71
2021/10/20 11:42:12;;;;;;;9.85;6.10;;;;;;;;;;6254397;23;20008;-71
2021/10/20 11:45:18;;;;;;;11.52;6.50;;;;;;;;;;6248573;23;20012;-72
2021/10/20 11:48:24;;;;;;;8.90;5.75;;;;;;;;;;6254311;23;20015;-71
2021/10/20 11:51:30;;;;;;;12.60;6.45;;;;;;;;;;6254305;23;20012;-71
2021/10/20 11:54:37;;;;;;;9.32;6.13;;;;;;;;;;6254254;23;20019;-71
2021/10/20 11:57:44;;;;;;;10.57;6.32;;;;;;;;;;6253699;23;20024;-71
2021/10/20 12:00:57;;;;;;;10.55;6.22;;;;;;;;;;6254045;23;20016;-71
2021/10/20 12:04:06;;;;;;;8.45;5.55;;;;;;;;;;6254014;23;20023;-71
2021/10/20 12:07:13;;;;;;;8.55;5.60;;;;;;;;;;6254127;23;20016;-71
2021/10/20 12:10:19;;;;;;;11.73;7.15;;;;;;;;;;6253950;23;20008;-71
2021/10/20 12:13:23;;;;;;;8.70;6.25;;;;;;;;;;6235331;23;20019;-71
2021/10/20 12:16:27;;;;;;;7.30;5.70;;;;;;;;;;6253934;23;20440;-70
2021/10/20 12:19:33;;;;;;;11.40;6.55;;;;;;;;;;6253710;23;20020;-71
2021/10/20 12:22:40;;;;;;;9.75;5.00;;;;;;;;;;6253577;23;20023;-71
2021/10/20 12:25:45;;;;;;;8.32;5.40;;;;;;;;;;6253875;23;20317;-71
2021/10/20 12:28:49;;;;;;;10.60;5.32;;;;;;;;;;6253693;23;20016;-71
2021/10/20 12:31:58;;;;;;;15.93;5.57;;;;;;;;;;6253745;23;20019;-71
2021/10/20 12:35:03;;;;;;;11.82;5.55;;;;;;;;;;6235263;23;20007;-70
2021/10/20 12:38:07;;;;;;;11.18;5.43;;;;;;;;;;6253782;23;20034;-71
2021/10/20 12:41:32;;;;;;;10.38;5.30;;;;;;;;;;6253605;23;20019;-72
2021/10/20 12:44:36;;;;;;;12.57;5.82;;;;;;;;;;6250440;23;20015;-72
2021/10/20 12:47:42;;;;;;;13.13;6.75;;;;;;;;;;6253883;23;20015;-72
2021/10/20 12:50:48;;;;;;;8.40;5.43;;;;;;;;;;6253415;23;20023;-71
2021/10/20 12:53:57;;;;;;;11.07;5.43;;;;;;;;;;6234903;23;20012;-71
2021/10/20 12:57:02;;;;;;;7.28;4.90;;;;;;;;;;6253604;23;20019;-72
2021/10/20 13:00:09;;;;;;;8.25;4.78;;;;;;;;;;6253565;23;20012;-72
2021/10/20 13:03:14;;;;;;;8.30;4.93;;;;;;;;;;6253809;23;20004;-72
2021/10/20 13:06:19;;;;;;;8.82;5.75;;;;;;;;;;6253757;23;20012;-71
2021/10/20 13:09:24;;;;;;;6.05;4.72;;;;;;;;;;6253403;23;20016;-71
2021/10/20 13:12:28;;;;;;;11.57;5.95;;;;;;;;;;6253527;23;20012;-72
2021/10/20 13:15:32;;;;;;;7.53;5.05;;;;;;;;;;6253246;23;20023;-71
2021/10/20 13:18:37;;;;;;;8.27;5.05;;;;;;;;;;6253288;23;20020;-71
2021/10/20 13:21:41;;;;;;;7.65;4.95;;;;;;;;;;6253282;23;20004;-71
2021/10/20 13:24:46;;;;;;;8.55;5.45;;;;;;;;;;6253377;23;20008;-71
2021/10/20 13:27:50;;;;;;;5.95;5.00;;;;;;;;;;6244403;23;20016;-72
2021/10/20 13:30:55;;;;;;;7.97;5.95;;;;;;;;;;6253072;23;20341;-73
2021/10/20 13:33:59;;;;;;;8.77;5.47;;;;;;;;;;6234819;23;20008;-71
2021/10/20 13:37:04;;;;;;;9.90;5.10;;;;;;;;;;6243001;23;20024;-71
2021/10/20 13:40:10;;;;;;;8.02;4.93;;;;;;;;;;6255203;23;20016;-71
2021/10/20 13:43:14;;;;;;;7.38;4.75;;;;;;;;;;6255536;23;20008;-71
2021/10/20 13:46:18;;;;;;;8.45;5.65;;;;;;;;;;6255534;23;20012;-71
2021/10/20 13:49:23;;;;;;;8.15;4.90;;;;;;;;;;6236757;23;20004;-71
2021/10/20 13:52:27;;;;;;;9.07;4.93;;;;;;;;;;6255539;23;20008;-71
2021/10/20 13:55:32;;;;;;;7.10;5.20;;;;;;;;;;6255455;23;20008;-71
2021/10/20 13:58:36;;;;;;;13.13;5.57;;;;;;;;;;6255403;23;20024;-71
2021/10/20 14:01:43;;;;;;;7.40;4.85;;;;;;;;;;6255374;23;20455;-71
2021/10/20 14:04:50;;;;;;;5.35;4.40;;;;;;;;;;6255327;23;20016;-71
2021/10/20 14:07:55;;;;;;;14.77;10.75;;;;;;;;;;6255059;23;20016;-71
2021/10/20 14:10:59;;;;;;;9.80;6.07;;;;;;;;;;6254974;23;20019;-71
2021/10/20 14:14:03;;;;;;;12.63;5.93;;;;;;;;;;6255178;23;20009;-71
2021/10/20 14:17:09;;;;;;;10.68;5.40;;;;;;;;;;6254748;23;20332;-71
2021/10/20 14:20:13;;;;;;;10.40;5.43;;;;;;;;;;6235996;23;20015;-71
2021/10/20 14:23:18;;;;;;;12.20;5.40;;;;;;;;;;6254858;23;20020;-71
2021/10/20 14:26:23;;;;;;;16.85;6.50;;;;;;;;;;6252097;23;20015;-71
2021/10/20 14:29:27;;;;;;;8.68;5.57;;;;;;;;;;6236036;23;20019;-71
2021/10/20 14:32:32;;;;;;;13.70;5.75;;;;;;;;;;6254844;23;20326;-71
2021/10/20 14:35:37;;;;;;;9.32;5.68;;;;;;;;;;6254801;23;20495;-71
2021/10/20 14:38:41;;;;;;;8.75;6.40;;;;;;;;;;6254353;23;20024;-71
2021/10/20 14:41:46;;;;;;;8.45;5.15;;;;;;;;;;6254880;23;20012;-71
2021/10/20 14:44:50;;;;;;;8.43;5.43;;;;;;;;;;6249834;23;20008;-71
2021/10/20 14:47:57;;;;;;;11.35;5.55;;;;;;;;;;6254373;23;20012;-72
2021/10/20 14:51:01;;;;;;;12.48;6.70;;;;;;;;;;6254048;23;20144;-71
2021/10/20 14:54:06;;;;;;;10.55;5.47;;;;;;;;;;6254418;23;20011;-71
2021/10/20 14:57:10;;;;;;;18.63;8.27;;;;;;;;;;6254406;23;20471;-71
2021/10/20 15:00:15;;;;;;;12.88;6.28;;;;;;;;;;6254393;23;20031;-71
2021/10/20 15:03:19;;;;;;;9.60;5.07;;;;;;;;;;6254445;23;20015;-71
2021/10/20 15:06:23;;;;;;;11.82;5.45;;;;;;;;;;6254125;23;20012;-71
2021/10/20 15:09:27;;;;;;;13.32;5.75;;;;;;;;;;6254228;23;20008;-71
2021/10/20 15:12:32;;;;;;;9.07;4.75;;;;;;;;;;6254041;23;20015;-71
2021/10/20 15:15:36;;;;;;;10.48;5.75;;;;;;;;;;6254124;23;20008;-71
2021/10/20 15:21:58;;;;;;;6.68;5.03;;;;;;;;;;6254212;23;20337;-72
2021/10/20 15:25:03;;;;;;;8.60;5.85;;;;;;;;;;6254130;23;20008;-71
2021/10/20 15:28:07;;;;;;;12.35;6.28;;;;;;;;;;6243887;23;20024;-71
2021/10/20 15:31:15;;;;;;;6.70;5.45;;;;;;;;;;6254057;23;20011;-71
2021/10/20 15:34:19;;;;;;;6.47;4.97;;;;;;;;;;6253944;23;20016;-71
2021/10/20 15:37:24;;;;;;;8.95;5.78;;;;;;;;;;6253682;23;20012;-71
2021/10/20 15:40:29;;;;;;;8.95;5.35;;;;;;;;;;6253788;23;20016;-71
2021/10/20 15:43:35;;;;;;;7.90;5.13;;;;;;;;;;6253729;23;20008;-71
2021/10/20 15:46:39;;;;;;;10.82;6.10;;;;;;;;;;6253745;23;20011;-71
2021/10/20 15:49:47;;;;;;;11.98;6.50;;;;;;;;;;6253677;23;20019;-71
2021/10/20 15:52:51;;;;;;;15.38;6.57;;;;;;;;;;6251988;23;20031;-71
2021/10/20 15:55:56;;;;;;;8.30;5.72;;;;;;;;;;6253516;23;20019;-73
2021/10/20 15:59:00;;;;;;;10.43;6.70;;;;;;;;;;6234847;23;20024;-73
2021/10/20 16:02:05;;;;;;;14.68;7.75;;;;;;;;;;6253469;23;20525;-73
2021/10/20 16:05:10;;;;;;;20.25;10.80;;;;;;;;;;6253534;23;20019;-71
2021/10/20 16:08:15;;;;;;;14.43;9.02;;;;;;;;;;6253387;23;20011;-71
2021/10/20 16:11:20;;;;;;;17.58;8.73;;;;;;;;;;6253347;23;20031;-71
2021/10/20 16:14:24;;;;;;;15.13;8.95;;;;;;;;;;6253507;23;20019;-72
2021/10/20 16:17:28;;;;;;;26.40;10.85;;;;;;;;;;6234652;23;20018;-71
2021/10/20 16:20:34;;;;;;;24.35;10.30;;;;;;;;;;6234997;23;20023;-71
2021/10/20 16:23:38;;;;;;;20.63;10.15;;;;;;;;;;6253185;23;20015;-71
2021/10/20 16:26:42;;;;;;;23.98;10.60;;;;;;;;;;6249140;23;20031;-73
2021/10/20 16:29:47;;;;;;;16.75;9.57;;;;;;;;;;6253253;23;20019;-75
2021/10/20 16:32:51;;;;;;;16.83;10.48;;;;;;;;;;6253450;23;20130;-76
2021/10/20 16:35:56;;;;;;;16.23;9.70;;;;;;;;;;6252721;23;20035;-74
2021/10/20 16:39:01;;;;;;;14.55;8.85;;;;;;;;;;6253373;23;20031;-73
2021/10/20 16:42:05;;;;;;;25.70;10.15;;;;;;;;;;6253159;23;20023;-75
2021/10/20 16:45:11;;;;;;;17.45;10.07;;;;;;;;;;6245045;23;20027;-74
2021/10/20 16:48:16;;;;;;;18.80;9.32;;;;;;;;;;6253062;23;20700;-72
2021/10/20 16:51:20;;;;;;;20.42;8.90;;;;;;;;;;6253321;23;20035;-74
2021/10/20 16:54:24;;;;;;;16.92;9.45;;;;;;;;;;6253553;23;20023;-75
2021/10/20 16:57:29;;;;;;;23.42;10.45;;;;;;;;;;6253167;23;20023;-76
2021/10/20 17:00:34;;;;;;;17.73;11.20;;;;;;;;;;6252925;23;20047;-76
2021/10/20 17:03:38;;;;;;;17.85;11.30;;;;;;;;;;6253084;23;20019;-75
2021/10/20 17:06:43;;;;;;;23.75;11.68;;;;;;;;;;6253183;23;20019;-73
2021/10/20 17:09:47;;;;;;;19.65;12.15;;;;;;;;;;6252554;23;20023;-74
2021/10/20 17:12:53;;;;;;;26.40;13.65;;;;;;;;;;6251057;23;20039;-74
2021/10/20 17:15:57;;;;;;;18.80;13.57;;;;;;;;;;6250796;23;20615;-74
2021/10/20 17:19:01;;;;;;;23.45;13.35;;;;;;;;;;6252865;23;20047;-77
2021/10/20 17:22:06;;;;;;;20.92;13.02;;;;;;;;;;6253207;23;20015;-75
2021/10/20 17:25:11;;;;;;;27.88;12.05;;;;;;;;;;6253490;23;20023;-75
2021/10/20 17:28:15;;;;;;;23.25;12.95;;;;;;;;;;6242834;23;20027;-75
2021/10/20 17:31:20;;;;;;;24.70;12.55;;;;;;;;;;6253109;23;20333;-75
2021/10/20 17:34:24;;;;;;;20.80;13.05;;;;;;;;;;6252989;23;20471;-75
2021/10/20 17:37:28;;;;;;;20.35;12.85;;;;;;;;;;6253018;23;20405;-75
2021/10/20 17:40:33;;;;;;;27.40;20.17;;;;;;;;;;6252826;23;20344;-75
2021/10/20 17:43:37;;;;;;;28.20;18.25;;;;;;;;;;6250942;23;20016;-75
2021/10/20 17:46:41;;;;;;;36.28;23.60;;;;;;;;;;6253020;23;20332;-74
2021/10/20 17:49:46;;;;;;;46.90;26.88;;;;;;;;;;6234381;23;20027;-74
2021/10/20 17:52:50;;;;;;;32.15;21.08;;;;;;;;;;6253145;23;20020;-74
2021/10/20 17:55:54;;;;;;;29.08;16.60;;;;;;;;;;6252890;23;20012;-76
2021/10/20 17:58:58;;;;;;;21.77;14.20;;;;;;;;;;6252814;23;20023;-75
2021/10/20 18:02:03;;;;;;;24.77;14.35;;;;;;;;;;6232880;23;20068;-76
2021/10/20 18:05:08;;;;;;;22.30;13.75;;;;;;;;;;6252891;23;20195;-76
2021/10/20 18:08:13;;;;;;;24.55;16.33;;;;;;;;;;6252010;23;20029;-75
2021/10/20 18:11:17;;;;;;;23.33;14.23;;;;;;;;;;6252815;23;20163;-76